Terminal Aerodrome Forecast
Issued by NWS Jackson, MS

Home | Current Version | Previous Version | Text Only | Print | Product List | Glossary On
Versions: 1 2 3 4 5 6 7 8 9 10 11 12 13 14 15 16 17 18
000
FTUS44 KJAN 302227 AAA
TAFGWO
TAF AMD
KGWO 302227Z 3022/3118 15004KT P6SM SCT110 BKN250
     FM310200 VRB03KT P6SM SCT030 BKN050 BKN120
     FM311100 17005KT P6SM VCSH OVC015
     FM311600 25005KT P6SM OVC025=

USA.gov is the U.S. government's official web portal to all federal, state and local government web resources and services.